Time;durP1;ratioP1;P1;durP2;ratioP2;P2;SDS_P1;SDS_P2;PMS_P1;PMS_P2;Temp;Humidity;BMP_temperature;BMP_pressure;BME280_temperature;BME280_humidity;BME280_pressure;Samples;Min_cycle;Max_cycle;Signal;HPM_P1;HPM_P2
2022/02/04 00:07:42;;;;;;;78.50;34.08;;;5.10;99.90;;;;;;4951671;28;20162;-72
2022/02/04 00:23:16;;;;;;;54.72;25.80;;;5.20;99.90;;;;;;4948475;28;20138;-72
2022/02/04 00:28:30;;;;;;;70.53;31.73;;;5.10;99.90;;;;;;4947386;28;20142;-72
2022/02/04 00:31:10;;;;;;;71.68;32.95;;;5.20;99.90;;;;;;4946178;28;20055;-71
2022/02/04 00:33:39;;;;;;;76.10;32.25;;;5.20;99.90;;;;;;4977777;28;20051;-72
2022/02/04 00:36:13;;;;;;;72.70;32.42;;;5.20;99.90;;;;;;4946128;28;20074;-72
2022/02/04 00:38:44;;;;;;;72.82;33.05;;;5.10;99.90;;;;;;4942546;28;20130;-71
2022/02/04 00:41:14;;;;;;;69.65;31.83;;;5.20;99.90;;;;;;4972489;28;20063;-71
2022/02/04 00:43:42;;;;;;;76.90;32.97;;;5.10;99.90;;;;;;4947838;28;20051;-72
2022/02/04 00:46:14;;;;;;;76.00;32.95;;;5.20;99.90;;;;;;4946082;28;20043;-72
2022/02/04 00:49:13;;;;;;;73.55;32.97;;;5.20;99.90;;;;;;4947989;28;20048;-71
2022/02/04 01:26:22;;;;;;;74.28;32.63;;;5.10;99.90;;;;;;4956566;28;20101;-78
2022/02/04 01:28:52;;;;;;;77.00;33.08;;;5.10;99.90;;;;;;4963365;28;20121;-78
2022/02/04 01:31:21;;;;;;;80.35;32.80;;;5.10;99.90;;;;;;4942536;28;20214;-78
2022/02/04 01:33:48;;;;;;;77.30;32.88;;;5.10;99.90;;;;;;4963460;28;20513;-78
2022/02/04 01:36:16;;;;;;;73.57;33.15;;;5.20;99.90;;;;;;4962734;28;20042;-78
2022/02/04 01:38:44;;;;;;;69.40;32.17;;;5.10;99.90;;;;;;4965072;28;20387;-78
2022/02/04 01:41:12;;;;;;;75.43;30.40;;;5.10;99.90;;;;;;4969213;28;20125;-78
2022/02/04 01:43:40;;;;;;;68.05;29.02;;;5.20;99.90;;;;;;4963599;28;20082;-79
2022/02/04 01:46:09;;;;;;;76.32;33.45;;;5.20;99.90;;;;;;4979516;28;20116;-78
2022/02/04 01:48:37;;;;;;;68.15;30.02;;;5.20;99.90;;;;;;4967503;28;20086;-78
2022/02/04 01:51:06;;;;;;;65.75;30.13;;;5.20;99.90;;;;;;4977916;28;20046;-78
2022/02/04 01:53:35;;;;;;;59.53;28.92;;;5.20;99.90;;;;;;4938946;28;20050;-79
2022/02/04 01:56:05;;;;;;;62.33;29.13;;;5.20;99.90;;;;;;4962083;28;20130;-78
2022/02/04 01:58:32;;;;;;;59.42;28.08;;;5.20;99.90;;;;;;4953322;28;20117;-78
2022/02/04 02:00:59;;;;;;;59.60;28.60;;;5.20;99.90;;;;;;4954084;28;20113;-79
2022/02/04 02:03:27;;;;;;;62.83;29.67;;;5.30;99.90;;;;;;4957268;28;20715;-78
2022/02/04 02:05:57;;;;;;;57.50;27.70;;;5.20;99.90;;;;;;4976580;28;20097;-78
2022/02/04 02:08:24;;;;;;;61.03;28.08;;;5.20;99.90;;;;;;4962915;28;20662;-78
2022/02/04 02:10:51;;;;;;;60.47;27.95;;;5.20;99.90;;;;;;4953871;28;20066;-78
2022/02/04 02:46:22;;;;;;;56.63;28.60;;;5.30;99.90;;;;;;4932632;28;20677;-78
2022/02/04 02:49:23;;;;;;;59.38;26.73;;;5.40;99.90;;;;;;4958233;28;20769;-78
2022/02/04 02:52:10;;;;;;;58.58;27.92;;;5.30;99.90;;;;;;4958097;28;20145;-78
2022/02/04 02:59:39;;;;;;;74.22;31.10;;;5.30;99.90;;;;;;4985081;28;20134;-77
2022/02/04 03:02:06;;;;;;;68.10;30.25;;;5.30;99.90;;;;;;4978861;28;20043;-78
2022/02/04 03:04:33;;;;;;;75.07;31.63;;;5.30;99.90;;;;;;4999285;28;20149;-77
2022/02/04 03:06:59;;;;;;;65.15;28.45;;;5.20;99.90;;;;;;4959552;28;20286;-77
2022/02/04 03:09:26;;;;;;;69.97;30.67;;;5.20;99.90;;;;;;4954427;28;20513;-77
2022/02/04 03:11:53;;;;;;;73.28;30.55;;;5.30;99.90;;;;;;4959998;28;20137;-78
2022/02/04 03:14:19;;;;;;;68.32;30.63;;;5.30;99.90;;;;;;4961972;28;20508;-77
2022/02/04 03:16:46;;;;;;;67.55;30.45;;;5.30;99.90;;;;;;4964092;28;20138;-77
2022/02/04 03:19:14;;;;;;;70.55;29.15;;;5.30;99.90;;;;;;4978603;28;20538;-77
2022/02/04 03:21:44;;;;;;;75.55;30.45;;;5.30;99.90;;;;;;4947900;28;20043;-77
2022/02/04 03:24:16;;;;;;;78.75;30.88;;;5.30;99.90;;;;;;4981500;28;20050;-78
2022/02/04 03:26:49;;;;;;;75.80;32.38;;;5.20;99.90;;;;;;4955489;28;20073;-77
2022/02/04 03:29:23;;;;;;;70.10;29.02;;;5.20;99.90;;;;;;4958109;28;20655;-77
2022/02/04 03:31:53;;;;;;;79.47;30.92;;;5.20;99.90;;;;;;4959955;28;20113;-77
2022/02/04 03:34:20;;;;;;;80.05;30.48;;;5.20;99.90;;;;;;4967721;28;20046;-80
2022/02/04 03:36:47;;;;;;;80.95;32.80;;;5.30;99.90;;;;;;4964837;28;20043;-77
2022/02/04 03:39:13;;;;;;;77.80;31.52;;;5.20;99.90;;;;;;4965850;28;20063;-77
2022/02/04 03:41:40;;;;;;;71.35;31.60;;;5.20;99.90;;;;;;4956742;28;20337;-77
2022/02/04 03:44:07;;;;;;;74.28;31.67;;;5.20;99.90;;;;;;4964580;28;20062;-77
2022/02/04 03:46:34;;;;;;;73.28;29.00;;;5.20;99.90;;;;;;4958174;28;20172;-77
2022/02/04 03:49:01;;;;;;;87.13;33.42;;;5.20;99.90;;;;;;4964278;28;20161;-77
2022/02/04 03:51:28;;;;;;;80.75;33.70;;;5.20;99.90;;;;;;4951515;28;20490;-77
2022/02/04 03:53:54;;;;;;;79.32;30.50;;;5.20;99.90;;;;;;4945147;28;20513;-77
2022/02/04 03:56:21;;;;;;;81.35;31.70;;;5.20;99.90;;;;;;4944762;28;20400;-77
2022/02/04 03:58:48;;;;;;;74.97;30.95;;;5.20;99.90;;;;;;4942791;29;20058;-77
2022/02/04 04:01:15;;;;;;;78.25;33.00;;;5.20;99.90;;;;;;4946619;28;20146;-78
2022/02/04 04:03:43;;;;;;;74.05;31.65;;;5.20;99.90;;;;;;4944733;28;20074;-77
2022/02/04 04:06:11;;;;;;;73.80;32.60;;;5.20;99.90;;;;;;4972510;28;20074;-77
2022/02/04 04:08:38;;;;;;;68.50;31.10;;;5.20;99.90;;;;;;4962246;28;20093;-78
2022/02/04 04:11:05;;;;;;;68.03;32.40;;;5.20;99.90;;;;;;4976470;28;20050;-78
2022/02/04 04:13:34;;;;;;;71.95;31.80;;;5.20;99.90;;;;;;4931325;28;20047;-77
2022/02/04 04:16:01;;;;;;;66.05;28.75;;;5.30;99.90;;;;;;4945788;28;20840;-77
2022/02/04 04:18:27;;;;;;;67.00;29.67;;;5.30;99.90;;;;;;4969780;28;20142;-78
2022/02/04 04:20:54;;;;;;;66.65;30.38;;;5.20;99.90;;;;;;4971434;28;20078;-78
2022/02/04 04:23:21;;;;;;;61.75;29.42;;;5.30;99.90;;;;;;4981347;28;20089;-77
2022/02/04 04:25:47;;;;;;;51.88;25.92;;;5.30;99.90;;;;;;4958559;28;20035;-77
2022/02/04 04:28:14;;;;;;;52.38;24.67;;;5.30;99.90;;;;;;4960596;28;20129;-77
2022/02/04 04:30:41;;;;;;;51.78;27.35;;;5.30;99.90;;;;;;4976246;28;20055;-77
2022/02/04 04:33:10;;;;;;;52.75;26.15;;;5.30;99.90;;;;;;4963327;28;20129;-77
2022/02/04 04:35:37;;;;;;;48.30;26.13;;;5.30;99.90;;;;;;4963939;28;20051;-78
2022/02/04 04:38:23;;;;;;;42.88;22.63;;;5.40;99.90;;;;;;4962817;28;20519;-78
2022/02/04 04:41:05;;;;;;;39.33;22.95;;;5.40;99.90;;;;;;4949654;28;20509;-77
2022/02/04 05:30:10;;;;;;;26.50;18.00;;;5.70;99.90;;;;;;4947263;28;20537;-77
2022/02/04 05:32:38;;;;;;;25.98;16.77;;;5.70;99.90;;;;;;4986871;28;20149;-77
2022/02/04 05:35:07;;;;;;;24.85;16.13;;;5.80;99.90;;;;;;4991466;28;20043;-77
2022/02/04 05:37:40;;;;;;;26.48;17.63;;;5.70;99.90;;;;;;4978425;28;20128;-78
2022/02/04 05:40:12;;;;;;;24.10;16.00;;;5.70;99.90;;;;;;4958472;28;20085;-78
2022/02/04 05:42:44;;;;;;;21.60;16.27;;;5.80;99.90;;;;;;4967802;28;20506;-77
2022/02/04 05:45:19;;;;;;;26.55;16.88;;;5.80;99.90;;;;;;4960482;28;20129;-77
2022/02/04 05:47:49;;;;;;;21.70;15.13;;;5.80;99.90;;;;;;4984586;28;20473;-78
2022/02/04 05:50:26;;;;;;;17.35;13.05;;;5.80;99.90;;;;;;4983859;28;20309;-77
2022/02/04 05:58:36;;;;;;;14.15;10.38;;;5.80;99.90;;;;;;4940657;28;20385;-78
2022/02/04 06:01:24;;;;;;;14.25;11.77;;;5.90;99.90;;;;;;4929925;28;20106;-77
2022/02/04 06:06:51;;;;;;;14.23;11.48;;;5.90;99.90;;;;;;4963279;28;20043;-78
2022/02/04 06:09:47;;;;;;;16.95;11.38;;;5.90;99.90;;;;;;4960399;28;20110;-78
2022/02/04 06:22:05;;;;;;;17.35;12.38;;;5.90;99.90;;;;;;4952072;28;20079;-78
2022/02/04 06:23:27;;;;;;;;;;;5.90;99.90;;;;;;4946697;28;20094;-78
2022/02/04 06:25:54;;;;;;;17.15;11.43;;;5.90;99.90;;;;;;4958226;28;19926;-78
2022/02/04 06:28:21;;;;;;;14.63;11.48;;;5.90;99.90;;;;;;4959151;28;20055;-78
2022/02/04 06:30:48;;;;;;;17.73;12.63;;;5.90;99.90;;;;;;4943507;28;20047;-78
2022/02/04 06:33:14;;;;;;;20.27;12.85;;;5.90;99.90;;;;;;4943019;28;20085;-78
2022/02/04 06:35:42;;;;;;;16.88;11.25;;;5.90;99.90;;;;;;4959545;28;20101;-78
2022/02/04 06:38:08;;;;;;;14.00;10.50;;;5.80;99.90;;;;;;4963508;28;20073;-78
2022/02/04 06:40:35;;;;;;;15.75;12.32;;;5.90;99.90;;;;;;4954762;28;20244;-78
2022/02/04 06:43:02;;;;;;;14.95;11.40;;;5.90;99.90;;;;;;4961642;28;20317;-77
2022/02/04 06:45:29;;;;;;;17.85;13.50;;;5.80;99.90;;;;;;4977348;28;20488;-77
2022/02/04 06:47:55;;;;;;;17.42;12.05;;;5.80;99.90;;;;;;4948252;28;20150;-78
2022/02/04 06:50:22;;;;;;;30.17;17.85;;;5.80;99.90;;;;;;4943861;28;20609;-78
2022/02/04 06:52:53;;;;;;;24.52;13.35;;;5.70;99.90;;;;;;4958886;28;20066;-77
2022/02/04 06:55:21;;;;;;;36.75;20.83;;;5.70;99.90;;;;;;4943536;28;20174;-77
2022/02/04 06:57:48;;;;;;;17.77;11.73;;;5.70;99.90;;;;;;4944033;28;20055;-78
2022/02/04 07:00:18;;;;;;;20.30;12.68;;;5.70;99.90;;;;;;4968112;28;20167;-78
2022/02/04 07:02:46;;;;;;;19.00;12.60;;;5.70;99.90;;;;;;4977417;28;20054;-77
2022/02/04 07:05:14;;;;;;;27.35;14.40;;;5.60;99.90;;;;;;4961284;28;20089;-77
2022/02/04 07:07:46;;;;;;;17.60;12.25;;;5.60;99.90;;;;;;4948894;28;20506;-77
2022/02/04 07:10:21;;;;;;;24.85;13.68;;;5.60;99.90;;;;;;4956052;28;20082;-77
2022/02/04 07:12:54;;;;;;;67.05;26.10;;;5.60;99.90;;;;;;4968961;28;20429;-77
2022/02/04 07:21:06;;;;;;;25.23;14.18;;;5.70;99.90;;;;;;4973779;28;20142;-74
2022/02/04 07:23:37;;;;;;;19.48;11.18;;;5.60;99.90;;;;;;4976803;28;20086;-74
2022/02/04 07:26:05;;;;;;;19.05;12.07;;;5.70;99.90;;;;;;4962178;28;20574;-74
2022/02/04 07:28:32;;;;;;;15.65;10.27;;;5.70;99.90;;;;;;4960896;28;20105;-73
2022/02/04 07:31:01;;;;;;;18.52;12.88;;;5.80;99.90;;;;;;4965172;28;20062;-74
2022/02/04 07:33:40;;;;;;;14.65;10.60;;;5.80;99.90;;;;;;4961810;28;20122;-75
2022/02/04 07:41:57;;;;;;;12.82;9.73;;;5.90;99.90;;;;;;4975614;28;20048;-74
2022/02/04 07:44:24;;;;;;;14.00;10.45;;;5.90;99.90;;;;;;4996930;28;20152;-75
2022/02/04 07:46:50;;;;;;;13.57;10.15;;;5.80;99.90;;;;;;5001535;28;20275;-74
2022/02/04 07:49:18;;;;;;;17.58;11.82;;;5.80;99.90;;;;;;4980479;28;20664;-75
2022/02/04 07:51:45;;;;;;;13.88;10.02;;;5.80;99.90;;;;;;4981397;28;20049;-75
2022/02/04 07:54:12;;;;;;;19.17;12.00;;;5.80;99.90;;;;;;4980170;28;20055;-74
2022/02/04 07:56:40;;;;;;;15.45;11.57;;;5.90;99.90;;;;;;4996718;28;20585;-75
2022/02/04 07:59:09;;;;;;;15.00;11.07;;;5.80;99.90;;;;;;4997243;28;20050;-75
2022/02/04 08:01:35;;;;;;;17.67;11.70;;;5.80;99.90;;;;;;4984908;28;20125;-75
2022/02/04 08:04:18;;;;;;;14.93;10.60;;;5.80;99.90;;;;;;4985561;28;20141;-74
2022/02/04 08:06:53;;;;;;;15.63;11.63;;;5.90;99.90;;;;;;4984803;28;20052;-75
2022/02/04 08:09:35;;;;;;;18.88;12.05;;;5.90;99.90;;;;;;4993951;28;20145;-74
2022/02/04 08:12:58;;;;;;;18.55;11.73;;;5.90;99.90;;;;;;4998059;28;20362;-74
2022/02/04 08:30:41;;;;;;;13.15;10.30;;;6.00;99.90;;;;;;4991033;28;20524;-74
2022/02/04 08:51:43;;;;;;;13.63;10.65;;;6.10;99.90;;;;;;5015202;28;20149;-74
2022/02/04 08:54:15;;;;;;;16.90;11.63;;;6.10;99.90;;;;;;5018807;28;20334;-74
2022/02/04 08:56:55;;;;;;;13.18;10.75;;;6.20;99.90;;;;;;5001643;28;20471;-74
2022/02/04 09:04:34;;;;;;;15.13;11.35;;;6.20;99.90;;;;;;4984349;28;20689;-74
2022/02/04 09:07:05;;;;;;;19.45;11.70;;;6.20;99.90;;;;;;5015363;28;20149;-74
2022/02/04 09:23:25;;;;;;;20.00;13.18;;;6.40;99.90;;;;;;5004044;28;20373;-74
2022/02/04 09:25:53;;;;;;;15.77;10.70;;;6.40;99.90;;;;;;5001359;28;20125;-74
2022/02/04 09:28:20;;;;;;;14.75;11.18;;;6.40;99.90;;;;;;4998963;28;20134;-74
2022/02/04 09:30:47;;;;;;;15.63;11.30;;;6.40;99.90;;;;;;4999968;28;20387;-74
2022/02/04 09:33:14;;;;;;;14.48;11.32;;;6.50;99.90;;;;;;5002667;28;20068;-74
2022/02/04 09:35:42;;;;;;;15.02;11.32;;;6.50;99.90;;;;;;5002911;28;20523;-74
2022/02/04 09:38:09;;;;;;;17.65;11.55;;;6.50;99.90;;;;;;4998626;28;20160;-75
2022/02/04 09:40:36;;;;;;;14.00;11.43;;;6.50;99.90;;;;;;4990486;28;20045;-75
2022/02/04 09:43:03;;;;;;;11.75;10.55;;;6.50;99.90;;;;;;5016109;28;20550;-74
2022/02/04 09:45:32;;;;;;;12.95;10.00;;;6.50;99.90;;;;;;5003503;28;20153;-75
2022/02/04 09:48:03;;;;;;;10.02;8.35;;;6.50;99.90;;;;;;5003329;28;20056;-74
2022/02/04 09:50:33;;;;;;;12.43;9.95;;;6.60;99.90;;;;;;5017447;28;20041;-75
2022/02/04 10:10:11;;;;;;;8.30;7.50;;;6.80;99.90;;;;;;5009144;28;20089;-74
2022/02/04 10:12:51;;;;;;;9.57;8.55;;;6.80;99.90;;;;;;4984158;28;20236;-75
2022/02/04 10:18:01;;;;;;;9.45;7.78;;;6.90;99.90;;;;;;5002766;28;20508;-74
2022/02/04 10:20:28;;;;;;;7.18;6.57;;;7.00;99.90;;;;;;5001852;28;20594;-74
2022/02/04 10:22:56;;;;;;;10.00;7.95;;;7.00;99.90;;;;;;5002013;28;20046;-75
2022/02/04 10:25:33;;;;;;;12.75;8.13;;;7.10;99.90;;;;;;5001636;28;20092;-75
2022/02/04 10:28:28;;;;;;;7.72;7.07;;;7.20;99.90;;;;;;4998873;28;20120;-75
2022/02/04 10:31:28;;;;;;;11.90;9.23;;;7.20;99.90;;;;;;5000519;28;20058;-75
2022/02/04 10:34:11;;;;;;;7.82;7.28;;;7.30;99.90;;;;;;4987145;28;20661;-75
2022/02/04 10:36:52;;;;;;;7.15;6.55;;;7.30;99.90;;;;;;5001954;28;20146;-75
2022/02/04 11:04:17;;;;;;;4.55;4.20;;;7.80;99.90;;;;;;5000053;28;20081;-73
2022/02/04 11:12:15;;;;;;;3.33;3.13;;;7.60;99.90;;;;;;4984115;28;20050;-73
2022/02/04 11:32:32;;;;;;;3.45;3.35;;;7.70;99.90;;;;;;4938878;28;20091;-73
2022/02/04 11:52:36;;;;;;;6.90;3.72;;;7.60;99.90;;;;;;4964359;28;20287;-72
2022/02/04 11:55:09;;;;;;;4.30;3.90;;;7.70;99.90;;;;;;4964083;28;20050;-73
2022/02/04 11:57:38;;;;;;;5.07;4.07;;;7.60;99.90;;;;;;4980327;28;20205;-73
2022/02/04 12:00:15;;;;;;;3.00;2.80;;;7.50;99.90;;;;;;4982508;28;20058;-71
2022/02/04 12:02:47;;;;;;;3.67;3.38;;;7.40;99.90;;;;;;4984171;28;20194;-71
2022/02/04 12:05:16;;;;;;;2.50;2.40;;;7.40;99.90;;;;;;4981833;28;20513;-71
2022/02/04 12:07:49;;;;;;;2.40;2.30;;;7.20;99.90;;;;;;4982753;28;20546;-71
2022/02/04 12:10:16;;;;;;;3.28;2.15;;;7.20;99.90;;;;;;4971943;28;20149;-71
2022/02/04 12:12:52;;;;;;;2.28;2.08;;;7.20;99.90;;;;;;4964029;28;20082;-71
2022/02/04 12:15:28;;;;;;;17.65;10.15;;;7.20;99.90;;;;;;4962272;28;20055;-71
2022/02/04 12:17:58;;;;;;;7.90;4.55;;;7.20;99.90;;;;;;4976424;28;20563;-72
2022/02/04 12:20:50;;;;;;;3.28;3.08;;;7.30;99.90;;;;;;4983303;28;20053;-72
2022/02/04 12:23:29;;;;;;;3.25;3.05;;;7.40;99.90;;;;;;4982550;28;20058;-71
2022/02/04 12:26:08;;;;;;;3.20;3.00;;;7.30;99.90;;;;;;4980114;28;20070;-71
2022/02/04 12:28:55;;;;;;;4.60;3.05;;;7.30;99.90;;;;;;4981230;28;20516;-71
2022/02/04 12:31:30;;;;;;;2.83;2.63;;;7.30;99.90;;;;;;4978467;28;20129;-71
2022/02/04 12:33:58;;;;;;;;;;;7.30;99.90;;;;;;4973883;28;20042;-71
2022/02/04 12:36:42;;;;;;;2.40;2.30;;;7.40;99.90;;;;;;4997965;28;20167;-71
2022/02/04 12:39:17;;;;;;;3.25;2.95;;;7.40;99.90;;;;;;4975867;28;20137;-71
2022/02/04 12:41:49;;;;;;;3.92;3.63;;;7.40;99.90;;;;;;4966722;28;20055;-71
2022/02/04 12:44:28;;;;;;;3.55;3.25;;;7.40;99.90;;;;;;4981081;28;20061;-71
2022/02/04 12:47:00;;;;;;;3.40;3.20;;;7.50;99.90;;;;;;4982966;28;20053;-70
2022/02/04 12:49:32;;;;;;;4.05;3.65;;;7.60;99.90;;;;;;4982861;28;20138;-71
2022/02/04 12:52:26;;;;;;;3.67;3.42;;;7.60;99.90;;;;;;4983258;28;20145;-70
2022/02/04 12:55:19;;;;;;;11.20;6.18;;;7.60;99.90;;;;;;4963497;28;20051;-70
2022/02/04 13:03:17;;;;;;;3.40;3.13;;;7.30;99.90;;;;;;5001789;28;20046;-70
2022/02/04 13:09:11;;;;;;;3.55;3.25;;;7.10;99.90;;;;;;4979551;28;20069;-71
2022/02/04 13:11:35;;;;;;;4.40;3.28;;;7.10;99.90;;;;;;4980121;28;20503;-71
2022/02/04 13:14:02;;;;;;;3.35;3.05;;;7.00;99.90;;;;;;5004133;23;20122;-74
2022/02/04 13:16:31;;;;;;;6.05;3.63;;;7.00;99.90;;;;;;4986110;28;20065;-75
2022/02/04 13:19:01;;;;;;;3.45;3.15;;;6.90;99.90;;;;;;4965356;28;20487;-76
2022/02/04 13:21:30;;;;;;;4.03;3.40;;;6.80;99.90;;;;;;4980671;28;20053;-76
2022/02/04 13:24:07;;;;;;;2.92;2.60;;;6.80;99.90;;;;;;4977522;28;20546;-77
2022/02/04 13:26:35;;;;;;;3.38;2.78;;;6.80;99.90;;;;;;4959648;28;20125;-76
2022/02/04 13:29:04;;;;;;;3.45;2.58;;;6.80;99.90;;;;;;4991739;28;20109;-78
2022/02/04 13:31:35;;;;;;;2.97;2.30;;;6.70;99.90;;;;;;4974187;28;20061;-77
2022/02/04 13:34:13;;;;;;;2.80;2.40;;;6.70;99.90;;;;;;4992248;28;20054;-74
2022/02/04 13:39:31;;;;;;;2.75;2.55;;;6.70;99.90;;;;;;4968006;28;20172;-76
2022/02/04 13:42:28;;;;;;;3.08;2.50;;;6.70;99.90;;;;;;4979508;28;20363;-76
2022/02/04 13:45:10;;;;;;;2.50;2.30;;;6.70;99.90;;;;;;4965006;28;20054;-76
2022/02/04 13:57:52;;;;;;;3.20;2.90;;;6.80;99.90;;;;;;4996864;28;20109;-75
2022/02/04 14:00:42;;;;;;;2.58;2.47;;;6.80;99.90;;;;;;4990565;28;20058;-72
2022/02/04 14:03:16;;;;;;;3.25;2.30;;;6.70;99.90;;;;;;4975287;28;20512;-74
2022/02/04 14:06:00;;;;;;;3.10;2.53;;;6.70;99.90;;;;;;4972935;28;20108;-75
2022/02/04 14:08:33;;;;;;;3.08;2.88;;;6.70;99.90;;;;;;4971950;28;20054;-75
2022/02/04 14:11:04;;;;;;;3.90;2.90;;;6.70;99.90;;;;;;4973514;28;20046;-73
2022/02/04 14:13:32;;;;;;;2.75;2.60;;;6.60;99.90;;;;;;4989823;28;20054;-74
2022/02/04 14:16:05;;;;;;;2.28;2.17;;;6.60;99.90;;;;;;4989100;28;20197;-76
2022/02/04 14:18:35;;;;;;;3.00;2.80;;;6.60;99.90;;;;;;4988880;28;20050;-74
2022/02/04 14:21:03;;;;;;;4.68;2.97;;;6.70;99.90;;;;;;4973179;28;20519;-75
2022/02/04 14:23:30;;;;;;;4.38;3.95;;;6.70;99.90;;;;;;4975905;28;20054;-74
2022/02/04 14:26:12;;;;;;;3.17;2.95;;;6.80;99.90;;;;;;4972877;28;20058;-76
2022/02/04 15:04:00;;;;;;;7.32;6.93;;;6.90;99.90;;;;;;4974010;28;20074;-74
2022/02/04 15:06:32;;;;;;;26.70;18.40;;;6.90;99.90;;;;;;4986574;28;20670;-73
2022/02/04 15:09:11;;;;;;;9.32;8.45;;;6.90;99.90;;;;;;4975985;28;20495;-73
2022/02/04 15:11:41;;;;;;;6.43;6.13;;;6.90;99.90;;;;;;4979468;28;20282;-74
2022/02/04 15:14:11;;;;;;;7.72;7.13;;;6.90;99.90;;;;;;4978414;28;20517;-72
2022/02/04 15:16:38;;;;;;;7.18;6.68;;;6.80;99.90;;;;;;4992818;28;20345;-71
2022/02/04 15:19:05;;;;;;;7.75;7.15;;;6.80;99.90;;;;;;4959125;28;20212;-73
2022/02/04 15:21:33;;;;;;;7.68;6.97;;;6.80;99.90;;;;;;4953403;28;20050;-71
2022/02/04 15:24:00;;;;;;;7.00;6.45;;;6.70;99.90;;;;;;4958519;28;20222;-72
2022/02/04 15:26:29;;;;;;;6.72;6.32;;;6.70;99.90;;;;;;4960888;28;20070;-73
2022/02/04 15:29:07;;;;;;;5.43;5.13;;;6.70;99.90;;;;;;4992022;28;20534;-72
2022/02/04 15:34:02;;;;;;;5.60;5.20;;;6.70;99.90;;;;;;4981368;28;20050;-74
2022/02/04 15:36:40;;;;;;;6.60;6.10;;;6.70;99.90;;;;;;5012796;28;20796;-72
2022/02/04 15:39:13;;;;;;;6.93;6.32;;;6.70;99.90;;;;;;4969157;28;20396;-75
2022/02/04 15:41:46;;;;;;;7.90;7.22;;;6.70;99.90;;;;;;4956506;28;20050;-71
2022/02/04 15:44:34;;;;;;;6.10;5.40;;;6.70;99.90;;;;;;4973705;28;20145;-71
2022/02/04 15:50:02;;;;;;;15.45;9.63;;;6.70;99.90;;;;;;4992785;28;20120;-71
2022/02/04 15:52:48;;;;;;;6.20;5.63;;;6.70;99.90;;;;;;4958639;28;20062;-72
2022/02/04 15:58:12;;;;;;;5.18;4.53;;;6.70;99.90;;;;;;4977045;28;20073;-73
2022/02/04 16:05:53;;;;;;;5.70;4.97;;;6.60;99.90;;;;;;4977447;28;20050;-72
2022/02/04 16:08:21;;;;;;;5.88;3.88;;;6.60;99.90;;;;;;4989502;28;20053;-71
2022/02/04 16:13:30;;;;;;;4.10;3.70;;;6.50;99.90;;;;;;4958649;28;20224;-73
2022/02/04 16:16:04;;;;;;;4.00;3.70;;;6.50;99.90;;;;;;4954784;28;20075;-73
2022/02/04 16:18:39;;;;;;;8.38;5.38;;;6.50;99.90;;;;;;4975642;28;20049;-73
2022/02/04 16:21:15;;;;;;;4.70;4.20;;;6.60;99.90;;;;;;4970326;28;20879;-73
2022/02/04 16:26:46;;;;;;;7.60;3.58;;;6.60;99.90;;;;;;4977315;28;20133;-72
2022/02/04 16:29:14;;;;;;;6.97;6.25;;;6.60;99.90;;;;;;4974435;28;20505;-70
2022/02/04 16:31:42;;;;;;;13.75;8.23;;;6.70;99.90;;;;;;4976993;28;20192;-72
2022/02/04 16:34:09;;;;;;;4.55;4.15;;;6.70;99.90;;;;;;4991777;28;20295;-70
2022/02/04 16:37:01;;;;;;;5.15;4.72;;;6.60;99.90;;;;;;4988272;28;20054;-72
2022/02/04 16:39:30;;;;;;;6.50;4.95;;;6.60;99.90;;;;;;4974135;28;20538;-70
2022/02/04 16:42:10;;;;;;;11.40;5.72;;;6.50;99.90;;;;;;4974719;28;20050;-72
2022/02/04 16:44:38;;;;;;;6.13;5.00;;;6.40;99.90;;;;;;4975253;28;20094;-75
2022/02/04 16:47:05;;;;;;;7.43;5.20;;;6.40;99.90;;;;;;4974322;28;20145;-73
2022/02/04 16:49:32;;;;;;;8.15;5.15;;;6.30;99.90;;;;;;4989815;28;20054;-76
2022/02/04 16:51:59;;;;;;;7.63;4.80;;;6.30;99.90;;;;;;4991723;28;20772;-77
2022/02/04 16:54:28;;;;;;;4.05;3.42;;;6.20;99.90;;;;;;4991371;28;20058;-75
2022/02/04 16:56:55;;;;;;;7.82;3.92;;;6.10;99.90;;;;;;4959215;28;20042;-76
2022/02/04 16:59:24;;;;;;;11.10;3.60;;;6.10;99.90;;;;;;4979184;28;20499;-76
2022/02/04 17:01:52;;;;;;;6.60;3.60;;;6.10;99.90;;;;;;4998532;28;20042;-77
2022/02/04 17:04:19;;;;;;;7.22;3.55;;;6.00;99.90;;;;;;4958162;28;20108;-76
2022/02/04 17:06:55;;;;;;;12.63;7.35;;;6.00;99.90;;;;;;4974280;28;20515;-74
2022/02/04 17:09:27;;;;;;;14.52;8.48;;;6.00;99.90;;;;;;4990871;28;20046;-74
2022/02/04 17:12:08;;;;;;;5.28;3.17;;;6.00;99.90;;;;;;4988855;28;20050;-74
2022/02/04 17:14:36;;;;;;;9.45;4.50;;;6.00;99.90;;;;;;4991513;28;20156;-77
2022/02/04 17:17:05;;;;;;;6.70;3.40;;;6.00;99.90;;;;;;4973784;28;20046;-76
2022/02/04 17:19:40;;;;;;;5.30;3.25;;;6.00;99.90;;;;;;4972909;28;20124;-76
2022/02/04 17:22:08;;;;;;;4.20;2.83;;;6.00;99.90;;;;;;4972921;28;20120;-74
2022/02/04 17:24:35;;;;;;;3.05;2.55;;;6.00;99.90;;;;;;4970519;28;20644;-72
2022/02/04 17:27:02;;;;;;;8.27;3.63;;;6.00;99.90;;;;;;4954042;28;20058;-73
2022/02/04 17:29:30;;;;;;;6.03;2.10;;;6.10;99.90;;;;;;5001321;28;20053;-73
2022/02/04 17:31:58;;;;;;;4.80;2.30;;;6.10;99.90;;;;;;4979370;28;20104;-77
2022/02/04 17:34:24;;;;;;;2.20;2.00;;;6.10;99.90;;;;;;4975600;28;20054;-75
2022/02/04 17:36:51;;;;;;;2.20;2.00;;;6.10;99.90;;;;;;4975014;28;20046;-72
2022/02/04 17:39:21;;;;;;;6.22;2.60;;;6.10;99.90;;;;;;4967101;28;20104;-74
2022/02/04 17:41:51;;;;;;;2.22;2.05;;;6.10;99.90;;;;;;4982065;28;20062;-71
2022/02/04 17:44:19;;;;;;;2.85;1.92;;;6.20;99.90;;;;;;4976215;28;20050;-71
2022/02/04 17:46:48;;;;;;;5.32;2.83;;;6.10;99.90;;;;;;4970862;28;20149;-74
2022/02/04 17:49:22;;;;;;;2.97;2.65;;;6.20;99.90;;;;;;4956594;28;20082;-72
2022/02/04 17:52:02;;;;;;;2.70;2.47;;;6.20;99.90;;;;;;4975761;28;20053;-71
2022/02/04 17:54:36;;;;;;;4.38;2.40;;;6.30;99.90;;;;;;4985898;28;20062;-69
2022/02/04 17:57:16;;;;;;;4.28;2.42;;;6.30;99.90;;;;;;4978784;28;20095;-71
2022/02/04 18:05:25;;;;;;;5.90;1.95;;;6.10;99.90;;;;;;4976157;28;20336;-75
2022/02/04 18:07:51;;;;;;;3.55;2.40;;;6.10;99.90;;;;;;4982469;28;20046;-76
2022/02/04 18:10:18;;;;;;;7.57;3.20;;;6.00;99.90;;;;;;4977420;28;20078;-78
2022/02/04 18:12:45;;;;;;;3.88;1.38;;;5.90;99.90;;;;;;4947980;28;20105;-76
2022/02/04 18:15:12;;;;;;;2.75;1.90;;;5.80;99.90;;;;;;4973997;28;20096;-80
2022/02/04 18:17:39;;;;;;;5.57;2.88;;;5.60;99.90;;;;;;4970986;28;20117;-78
2022/02/04 18:20:06;;;;;;;3.20;2.30;;;5.40;99.90;;;;;;4973725;28;20054;-78
2022/02/04 18:22:35;;;;;;;4.40;2.38;;;5.20;99.90;;;;;;4978856;28;20039;-77
2022/02/04 18:25:02;;;;;;;4.97;2.58;;;5.00;99.90;;;;;;4985927;28;20061;-78
2022/02/04 18:27:29;;;;;;;2.45;1.98;;;4.90;99.90;;;;;;4977968;28;20046;-74
2022/02/04 18:29:58;;;;;;;3.03;2.22;;;4.40;99.90;;;;;;4976519;28;20054;-77
2022/02/04 18:32:25;;;;;;;3.65;2.00;;;4.00;99.90;;;;;;4993886;28;20160;-80
2022/02/04 18:34:54;;;;;;;2.40;2.15;;;3.80;99.90;;;;;;4994638;28;20058;-78
2022/02/04 18:37:30;;;;;;;4.93;3.30;;;3.60;99.90;;;;;;4975752;28;20081;-75
2022/02/04 18:44:56;;;;;;;4.38;3.88;;;3.40;99.90;;;;;;4975643;28;20047;-74
2022/02/04 18:47:29;;;;;;;3.35;2.67;;;3.30;99.90;;;;;;4981068;28;20481;-75
2022/02/04 18:50:06;;;;;;;3.70;2.97;;;3.20;99.90;;;;;;5011746;28;20108;-77
2022/02/04 18:57:55;;;;;;;4.57;2.75;;;3.10;99.90;;;;;;4974437;28;20100;-74
2022/02/04 19:00:22;;;;;;;3.25;2.25;;;2.90;99.90;;;;;;4989734;28;20042;-73
2022/02/04 19:02:52;;;;;;;2.85;2.17;;;2.80;99.90;;;;;;4988372;28;20104;-76
2022/02/04 19:05:24;;;;;;;3.22;2.45;;;2.80;99.90;;;;;;4961407;28;20054;-76
2022/02/04 19:08:04;;;;;;;4.07;2.45;;;2.70;99.90;;;;;;4989362;28;20054;-78
2022/02/04 19:10:34;;;;;;;3.88;2.53;;;2.70;99.90;;;;;;4975899;28;20471;-78
2022/02/04 19:13:26;;;;;;;3.47;2.67;;;2.60;99.90;;;;;;4971757;28;20161;-77
2022/02/04 19:16:10;;;;;;;4.25;3.30;;;2.60;99.90;;;;;;5015773;23;20054;-72
2022/02/04 19:21:38;;;;;;;7.60;4.75;;;2.60;99.90;;;;;;4981345;28;20137;-74
2022/02/04 19:24:06;;;;;;;6.80;4.57;;;2.60;99.90;;;;;;4978162;28;20497;-72
2022/02/04 19:26:33;;;;;;;5.95;3.58;;;2.60;99.90;;;;;;4957313;28;20226;-70
2022/02/04 19:29:00;;;;;;;6.05;4.00;;;2.60;99.90;;;;;;4946814;28;20049;-71
2022/02/04 19:31:27;;;;;;;6.15;4.07;;;2.60;99.90;;;;;;4944179;28;20133;-70
2022/02/04 19:33:54;;;;;;;6.40;3.83;;;2.50;99.90;;;;;;4961892;28;20125;-70
2022/02/04 19:36:21;;;;;;;7.00;4.00;;;2.60;99.90;;;;;;4961815;28;20089;-71
2022/02/04 19:38:48;;;;;;;11.23;6.70;;;2.60;99.90;;;;;;4953121;28;20129;-71
2022/02/04 19:41:19;;;;;;;11.55;6.50;;;2.60;99.90;;;;;;4962409;28;20179;-69
2022/02/04 19:43:50;;;;;;;14.20;7.13;;;2.60;99.90;;;;;;4957615;28;20102;-71
2022/02/04 19:46:21;;;;;;;13.45;7.72;;;2.60;99.90;;;;;;4969361;28;20517;-71
2022/02/04 19:48:52;;;;;;;12.73;8.00;;;2.70;99.90;;;;;;4941195;28;20617;-70
2022/02/04 19:51:36;;;;;;;12.75;7.88;;;2.60;99.90;;;;;;4978167;28;20521;-72
2022/02/04 20:14:44;;;;;;;10.70;7.13;;;2.50;99.90;;;;;;4964216;28;20474;-71